createdAt,value
2022-08-17T00:01:59.277Z,28.44
2022-08-17T00:08:49.651Z,28.44
2022-08-17T00:15:30.760Z,28.42
2022-08-17T00:22:28.776Z,28.42
2022-08-17T00:29:00.622Z,28.44
2022-08-17T00:35:24.696Z,28.44
2022-08-17T00:41:47.734Z,28.44
2022-08-17T00:48:29.772Z,28.41
2022-08-17T00:55:13.840Z,28.45
2022-08-17T01:02:03.820Z,28.47
2022-08-17T01:08:43.984Z,28.45
2022-08-17T01:15:32.777Z,28.43
2022-08-17T01:22:17.915Z,28.44
2022-08-17T01:28:53.320Z,28.44
2022-08-17T01:35:32.791Z,28.43
2022-08-17T01:42:22.803Z,28.41
2022-08-17T01:49:12.424Z,28.38
2022-08-17T01:55:57.223Z,28.43
2022-08-17T02:02:37.776Z,28.43
2022-08-17T02:09:04.437Z,28.45
2022-08-17T02:15:33.780Z,28.45
2022-08-17T02:22:05.791Z,28.46
2022-08-17T02:28:43.759Z,28.41
2022-08-17T02:35:23.776Z,28.38
2022-08-17T02:41:48.778Z,28.41
2022-08-17T02:48:29.739Z,28.47
2022-08-17T02:55:05.719Z,28.45
2022-08-17T03:01:36.245Z,28.45
2022-08-17T03:08:05.736Z,28.42
2022-08-17T03:14:41.219Z,28.48
2022-08-17T03:21:16.776Z,28.46
2022-08-17T03:27:56.896Z,28.44
2022-08-17T03:34:39.947Z,28.43
2022-08-17T03:41:12.856Z,28.44
2022-08-17T03:47:39.313Z,28.36
2022-08-17T03:54:09.841Z,28.39
2022-08-17T04:00:45.738Z,28.38
2022-08-17T04:07:26.880Z,28.41
2022-08-17T04:14:03.932Z,27.98
2022-08-17T04:20:30.245Z,27.8
2022-08-17T04:27:25.886Z,27.7
2022-08-17T04:34:05.980Z,27.65
2022-08-17T04:40:50.917Z,27.62
2022-08-17T04:47:42.890Z,27.54
2022-08-17T04:54:16.421Z,27.64
2022-08-17T05:00:47.442Z,27.57
2022-08-17T05:07:23.562Z,27.56
2022-08-17T05:14:08.769Z,27.45
2022-08-17T05:20:34.291Z,27.42
2022-08-17T05:27:17.813Z,27.39
2022-08-17T05:33:52.437Z,27.37
2022-08-17T05:40:20.924Z,27.32
2022-08-17T05:47:09.989Z,27.32
2022-08-17T05:54:03.021Z,27.29
2022-08-17T06:01:16.622Z,27.22
2022-08-17T06:07:59.996Z,27.22
2022-08-17T06:15:02.107Z,27.15
2022-08-17T06:21:58.937Z,27.15
2022-08-17T06:29:08.197Z,27.22
2022-08-17T06:36:08.120Z,27.16
2022-08-17T06:43:18.382Z,27.08
2022-08-17T06:50:24.787Z,27.12
2022-08-17T06:57:41.922Z,27.12
2022-08-17T07:04:38.334Z,27.02
2022-08-17T07:11:21.309Z,27.01
2022-08-17T07:18:24.266Z,27.03
2022-08-17T07:25:15.958Z,26.99
2022-08-17T07:32:03.137Z,27.01
2022-08-17T07:38:45.304Z,27.01
2022-08-17T07:45:32.145Z,27
2022-08-17T07:52:24.962Z,27
2022-08-17T07:59:39.111Z,26.98
2022-08-17T08:06:32.591Z,26.95
2022-08-17T08:13:39.177Z,26.87
2022-08-17T08:20:52.848Z,26.94
2022-08-17T08:27:50.858Z,27.11
2022-08-17T08:35:01.009Z,27.15
2022-08-17T08:41:55.934Z,27.17
2022-08-17T08:48:53.536Z,27.23
2022-08-17T08:56:13.413Z,27.31
2022-08-17T09:03:42.695Z,27.38
2022-08-17T09:10:50.276Z,27.4
2022-08-17T09:18:28.738Z,27.5
2022-08-17T09:25:26.967Z,27.55
2022-08-17T09:32:27.273Z,27.56
2022-08-17T09:39:31.117Z,27.56
2022-08-17T09:46:37.458Z,27.58
2022-08-17T09:53:46.415Z,27.6
2022-08-17T10:00:54.189Z,27.58
2022-08-17T10:08:08.344Z,27.63
2022-08-17T10:15:20.270Z,27.63
2022-08-17T10:22:35.473Z,27.72
2022-08-17T10:29:47.545Z,27.73
2022-08-17T10:37:12.150Z,27.77
2022-08-17T10:44:39.163Z,27.74
2022-08-17T10:51:48.517Z,27.74
2022-08-17T10:58:49.003Z,27.7
2022-08-17T11:05:31.075Z,27.62
2022-08-17T11:12:42.468Z,27.63
2022-08-17T11:19:56.121Z,27.67
2022-08-17T11:27:08.416Z,27.71
2022-08-17T11:34:12.150Z,27.75
2022-08-17T11:41:13.005Z,27.75
2022-08-17T11:48:27.551Z,27.71
2022-08-17T11:55:40.644Z,27.77
2022-08-17T12:02:54.464Z,27.89
2022-08-17T12:09:54.067Z,27.85
2022-08-17T12:16:59.935Z,27.89
2022-08-17T12:23:51.536Z,27.89
2022-08-17T12:30:59.169Z,27.93
2022-08-17T12:37:52.847Z,27.94
2022-08-17T12:44:56.172Z,27.98
2022-08-17T12:51:38.893Z,28.03
2022-08-17T12:58:44.264Z,28.07
2022-08-17T13:05:52.018Z,28.03
2022-08-17T13:12:38.176Z,28.05
2022-08-17T13:19:40.645Z,28.14
2022-08-17T13:26:32.182Z,28.12
2022-08-17T13:33:24.232Z,28.18
2022-08-17T13:40:35.475Z,28.29
2022-08-17T13:47:27.575Z,28.25
2022-08-17T13:54:13.158Z,28.24
2022-08-17T14:01:13.574Z,28.32
2022-08-17T14:07:50.299Z,28.33
2022-08-17T14:14:45.233Z,28.54
2022-08-17T14:21:18.556Z,28.64
2022-08-17T14:27:52.568Z,28.63
2022-08-17T14:34:25.502Z,28.64
2022-08-17T14:41:01.101Z,28.55
2022-08-17T14:47:33.254Z,28.53
2022-08-17T14:54:04.172Z,28.6
2022-08-17T15:00:46.069Z,28.65
2022-08-17T15:07:25.133Z,28.65
2022-08-17T15:14:03.221Z,28.61
2022-08-17T15:20:36.654Z,28.79
2022-08-17T15:27:08.569Z,28.92
2022-08-17T15:33:39.550Z,29.01
2022-08-17T15:40:18.432Z,28.97
2022-08-17T15:46:57.270Z,29.07
2022-08-17T15:53:37.225Z,28.9
2022-08-17T16:00:06.282Z,28.82
2022-08-17T16:06:36.275Z,28.71
2022-08-17T16:13:17.246Z,28.56
2022-08-17T16:19:45.161Z,28.77
2022-08-17T16:26:22.218Z,28.76
2022-08-17T16:33:06.294Z,28.64
2022-08-17T16:39:40.626Z,28.64
2022-08-17T16:46:21.491Z,28.66
2022-08-17T16:52:46.219Z,28.64
2022-08-17T16:59:26.529Z,28.57
2022-08-17T17:06:24.315Z,28.53
2022-08-17T17:13:33.075Z,28.42
2022-08-17T17:20:15.260Z,28.31
2022-08-17T17:27:21.192Z,28.22
2022-08-17T17:34:31.360Z,28.17
2022-08-17T17:41:31.271Z,28.09
2022-08-17T17:48:27.214Z,28.03
2022-08-17T17:55:25.819Z,27.93
2022-08-17T18:02:39.388Z,27.83
2022-08-17T18:09:49.897Z,27.8
2022-08-17T18:17:03.150Z,27.97
2022-08-17T18:23:40.579Z,28.12
2022-08-17T18:30:35.447Z,28.17
2022-08-17T18:37:23.477Z,28.26
2022-08-17T18:44:14.194Z,28.38
2022-08-17T18:51:11.046Z,28.39
2022-08-17T18:58:18.267Z,28.49
2022-08-17T19:05:13.477Z,28.5
2022-08-17T19:12:10.385Z,28.5
2022-08-17T19:19:08.295Z,28.52
2022-08-17T19:26:17.457Z,28.61
2022-08-17T19:33:21.384Z,28.58
2022-08-17T19:40:20.397Z,28.63
2022-08-17T19:48:02.992Z,28.65
2022-08-17T19:55:05.507Z,28.65
2022-08-17T20:01:54.388Z,28.62
2022-08-17T20:08:49.966Z,28.6
2022-08-17T20:16:05.265Z,28.65
2022-08-17T20:22:59.410Z,28.6
2022-08-17T20:30:04.650Z,28.6
2022-08-17T20:37:03.362Z,28.57
2022-08-17T20:44:07.863Z,28.55
2022-08-17T20:51:01.946Z,28.59
2022-08-17T20:58:01.387Z,28.52
2022-08-17T21:05:09.951Z,28.52
2022-08-17T21:12:06.243Z,28.54
2022-08-17T21:18:58.333Z,28.54
2022-08-17T21:26:00.840Z,28.5
2022-08-17T21:32:49.397Z,28.54
2022-08-17T21:39:50.545Z,28.52
2022-08-17T21:46:47.463Z,28.51
2022-08-17T21:53:32.988Z,28.52
2022-08-17T22:00:20.620Z,28.55
2022-08-17T22:07:22.046Z,28.51
2022-08-17T22:14:20.423Z,28.53
2022-08-17T22:21:00.794Z,28.49
2022-08-17T22:27:47.450Z,28.51
2022-08-17T22:34:38.588Z,28.47
2022-08-17T22:41:37.363Z,28.41
2022-08-17T22:48:33.447Z,28.4
2022-08-17T22:55:17.774Z,28.44
2022-08-17T23:01:55.251Z,28.4
2022-08-17T23:08:38.399Z,28.38
2022-08-17T23:15:16.416Z,28.37
2022-08-17T23:21:40.416Z,28.36
2022-08-17T23:28:18.821Z,28.43
2022-08-17T23:34:54.441Z,28.46
2022-08-17T23:41:20.428Z,28.53
2022-08-17T23:48:01.959Z,28.51
2022-08-17T23:54:52.448Z,28.56
